Data for 10/14/2015

Time Sea-Level Adjusted Pressure Absolute Pressure Temperature Relative Humidity Dew Point   
(mb) (inHg) (mb) (inHg) (C) (F) (%) (C) (F)
00:05 1023 30.21 852 25.16 9.9 49.8 48 -0.7 30.8
00:10 1023 30.21 852 25.16 9.8 49.7 47 -0.8 30.6
00:15 1023 30.21 852 25.16 9.8 49.6 48 -0.5 31
00:20 1023 30.21 852 25.16 9.6 49.2 48 -0.7 30.7
00:25 1023 30.21 852 25.16 9.5 49.2 49 -0.6 30.9
00:30 1023 30.21 852 25.16 9.4 48.8 50 -0.6 30.9
00:35 1023 30.21 852 25.16 9.4 48.9 49 -0.7 30.7
00:40 1023 30.21 852 25.16 9.5 49.1 49 -0.8 30.6
00:45 1023 30.21 852 25.16 9.6 49.3 49 -0.6 30.9
00:50 1023 30.21 852 25.16 9.7 49.4 48 -0.8 30.6
00:55 1023 30.21 852 25.16 9.8 49.7 47 -0.8 30.6
01:00 1023 30.21 852 25.16 10 49.9 47 -0.8 30.6
01:05 1023 30.21 852 25.16 10.1 50.2 46 -0.9 30.4
01:10 1023 30.21 852 25.16 10.2 50.3 46 -0.8 30.6
01:15 1023 30.21 852 25.16 10.1 50.2 46 -0.9 30.5
01:20 1023 30.21 852 25.16 10 50 47 -0.6 30.8
01:25 1023 30.21 852 25.16 9.5 49 51 -0.2 31.6
01:30 1023 30.21 852 25.16 8.8 47.8 51 -0.7 30.8
01:35 1023 30.21 852 25.16 9.1 48.3 49 -1.1 30.1
01:40 1023 30.21 852 25.16 9.8 49.7 47 -1 30.2
01:45 1023 30.21 852 25.16 10 49.9 46 -1.1 30
01:50 1023 30.21 852 25.16 10.1 50.1 47 -0.7 30.7
01:55 1023 30.21 852 25.16 10.2 50.3 46 -0.9 30.3
02:00 1023 30.21 852 25.16 10.1 50.1 48 -0.5 31
02:05 1023 30.21 852 25.16 9.8 49.6 47 -0.9 30.4
02:10 1023 30.21 852 25.16 9.8 49.7 47 -0.8 30.5
02:15 1023 30.21 852 25.16 9.9 49.8 47 -0.8 30.6
02:20 1023 30.21 852 25.16 9.8 49.7 47 -0.9 30.4
02:25 1023 30.21 852 25.16 10.1 50.3 46 -1 30.3
02:30 1023 30.21 852 25.16 10.3 50.6 46 -0.8 30.6
02:35 1023 30.21 852 25.16 10.3 50.5 46 -0.8 30.5
02:40 1023 30.21 852 25.16 10.2 50.4 46 -0.9 30.4
02:45 1023 30.21 852 25.16 10.3 50.5 45 -1 30.3
02:50 1023 30.21 852 25.16 10.4 50.8 45 -1 30.2
02:55 1023 30.21 852 25.16 10.2 50.3 46 -0.8 30.5
03:00 1023 30.21 852 25.16 10.1 50.1 46 -1 30.1
03:05 1023 30.21 852 25.16 9.9 49.8 48 -0.5 31.1
03:10 1023 30.21 852 25.16 9.4 49 48 -0.9 30.3
03:15 1023 30.21 852 25.16 9.2 48.5 51 -0.5 31.2
03:20 1023 30.21 852 25.16 8.3 46.9 55 -0.2 31.6
03:25 1023 30.21 852 25.16 7.8 46 54 -0.9 30.3
03:30 1023 30.21 852 25.16 7.8 46.1 56 -0.4 31.3
03:35 1023 30.21 852 25.16 7.4 45.3 57 -0.6 30.9
03:40 1023 30.21 852 25.16 7.3 45.1 58 -0.4 31.3
03:45 1023 30.21 852 25.16 6.9 44.4 59 -0.5 31
03:50 1023 30.21 852 25.16 6.8 44.3 59 -0.6 31
03:55 1023 30.21 852 25.16 7.3 45.1 57 -0.6 30.9
04:00 1023 30.21 852 25.16 7.3 45.1 58 -0.3 31.4
04:05 1023 30.21 852 25.16 7.4 45.3 57 -0.5 31
04:10 1023 30.21 852 25.16 7.6 45.7 56 -0.5 31
04:15 1023 30.21 852 25.16 7.8 46 56 -0.5 31.1
04:20 1023 30.21 852 25.16 8.1 46.6 54 -0.5 31.1
04:25 1023 30.21 852 25.16 8.3 46.9 54 -0.5 31.2
04:30 1023 30.21 852 25.16 8.1 46.7 55 -0.3 31.4
04:35 1023 30.21 852 25.16 8.2 46.7 54 -0.5 31.1
04:40 1023 30.21 852 25.16 8 46.4 56 -0.2 31.6
04:45 1023 30.21 852 25.16 6.8 44.3 61 -0.3 31.5
04:50 1023 30.21 852 25.16 6.4 43.6 61 -0.5 31.1
04:55 1023 30.21 852 25.16 6.3 43.4 62 -0.4 31.3
05:00 1023 30.21 852 25.16 6.1 43 63 -0.4 31.2
05:05 1023 30.21 852 25.16 6.2 43.1 62 -0.6 30.9
05:10 1023 30.21 852 25.16 6.5 43.8 60 -0.6 30.9
05:15 1023 30.21 852 25.16 6.7 44.1 60 -0.6 31
05:20 1023 30.21 853 25.19 6.8 44.3 59 -0.5 31.1
05:25 1023 30.21 853 25.19 6.9 44.4 58 -0.7 30.7
05:30 1023 30.21 853 25.19 7.2 45 57 -0.7 30.7
05:35 1023 30.21 853 25.19 7.4 45.2 57 -0.6 31
05:40 1024 30.24 853 25.19 7.7 45.8 56 -0.6 30.9
05:45 1024 30.24 853 25.19 7.7 45.9 56 -0.5 31.1
05:50 1024 30.24 853 25.19 7.4 45.3 58 -0.4 31.2
05:55 1024 30.24 853 25.19 7 44.6 58 -0.6 30.9
06:00 1024 30.24 853 25.19 6.9 44.5 58 -0.8 30.6
06:05 1024 30.24 853 25.19 7.2 44.9 57 -0.8 30.6
06:10 1024 30.24 853 25.19 7.4 45.4 55 -0.9 30.3
06:15 1024 30.24 853 25.19 7.9 46.2 55 -0.7 30.7
06:20 1024 30.24 853 25.19 8 46.5 54 -0.8 30.6
06:25 1024 30.24 853 25.19 8.2 46.8 53 -0.8 30.6
06:30 1024 30.24 853 25.19 8.3 47 53 -0.7 30.8
06:35 1024 30.24 853 25.19 8.2 46.8 53 -0.6 30.8
06:40 1024 30.24 853 25.19 8.2 46.8 53 -0.6 30.8
06:45 1024 30.24 853 25.19 8.2 46.7 54 -0.5 31
06:50 1024 30.24 853 25.19 7.9 46.2 55 -0.6 31
06:55 1024 30.24 853 25.19 7.9 46.3 54 -0.8 30.6
07:00 1024 30.24 853 25.19 8.3 47 53 -0.7 30.7
07:05 1024 30.24 853 25.19 8.6 47.5 54 -0.3 31.5
07:10 1024 30.24 853 25.19 8 46.5 56 -0.2 31.6
07:15 1024 30.24 853 25.19 7.7 45.8 57 -0.4 31.3
07:20 1024 30.24 853 25.19 7.9 46.3 56 -0.3 31.4
07:25 1024 30.24 853 25.19 8.1 46.5 56 -0.2 31.6
07:30 1024 30.24 853 25.19 7.9 46.2 57 -0.1 31.8
07:35 1024 30.24 853 25.19 7.9 46.2 56 -0.3 31.5
07:40 1024 30.24 853 25.19 8 46.5 55 -0.4 31.3
07:45 1024 30.24 853 25.19 8.1 46.6 55 -0.2 31.6
07:50 1024 30.24 853 25.19 8.5 47.3 54 -0.1 31.8
07:55 1024 30.24 853 25.19 9.3 48.8 51 -0.1 31.8
08:00 1024 30.24 853 25.19 9.8 49.7 51 0.3 32.5
08:05 1024 30.24 853 25.19 9.9 49.9 50 0.1 32.1
08:10 1024 30.24 854 25.22 10.4 50.7 49 0.3 32.5
08:15 1024 30.24 854 25.22 10.4 50.8 49 0.3 32.6
08:20 1024 30.24 854 25.22 10.6 51 50 0.7 33.2
08:25 1024 30.24 853 25.19 10.5 50.9 50 0.7 33.2
08:30 1024 30.24 854 25.22 11 51.8 49 0.6 33.2
08:35 1024 30.24 854 25.22 11.5 52.6 47 0.6 33.1
08:40 1024 30.24 854 25.22 12.3 54.1 44 0.3 32.5
08:45 1024 30.24 853 25.19 12.5 54.4 44 0.5 33
08:50 1024 30.24 854 25.22 12.5 54.6 45 0.8 33.5
08:55 1024 30.24 854 25.22 12.9 55.1 43 0.8 33.4
09:00 1024 30.24 854 25.22 13.2 55.7 42 0.6 33.1
09:05 1024 30.24 854 25.22 13.6 56.4 42 1.1 34
09:10 1024 30.24 854 25.22 13.7 56.6 41 0.9 33.6
09:15 1024 30.24 854 25.22 14.1 57.3 41 0.9 33.7
09:20 1024 30.24 854 25.22 13.9 57 40 0.5 32.9
09:25 1024 30.24 854 25.22 14.4 57.8 38 0.3 32.5
09:30 1024 30.24 854 25.22 14.5 58 38 0.3 32.5
09:35 1024 30.24 854 25.22 14.6 58.3 38 0.4 32.8
09:40 1024 30.24 854 25.22 14.8 58.6 37 0.4 32.6
09:45 1024 30.24 854 25.22 15 59 35 -0.1 31.8
09:50 1024 30.24 854 25.22 15.1 59.2 35 -0.2 31.6
09:55 1024 30.24 854 25.22 15.3 59.6 36 0.3 32.6
10:00 1024 30.24 854 25.22 15.5 59.8 36 0.5 32.9
10:05 1024 30.24 854 25.22 15.3 59.6 35 0 32.1
10:10 1024 30.24 854 25.22 16.1 60.9 34 0.1 32.3
10:15 1024 30.24 854 25.22 16.3 61.4 34 0.4 32.8
10:20 1024 30.24 854 25.22 16.3 61.3 34 0.4 32.7
10:25 1024 30.24 853 25.19 16.3 61.3 33 0.1 32.2
10:30 1024 30.24 853 25.19 16.5 61.7 33 0.2 32.4
10:35 1024 30.24 853 25.19 16.6 62 33 0.3 32.5
10:40 1024 30.24 853 25.19 16.9 62.3 33 0.5 32.8
10:45 1024 30.24 853 25.19 16.7 62.1 32 -0 32
10:50 1024 30.24 853 25.19 16.5 61.7 33 0.3 32.6
10:55 1024 30.24 853 25.19 16.8 62.2 32 -0 31.9
11:00 1024 30.24 853 25.19 17 62.5 32 0.4 32.7
11:05 1024 30.24 853 25.19 17.4 63.3 31 0.3 32.6
11:10 1024 30.24 853 25.19 17.5 63.5 31 0.4 32.8
11:15 1024 30.24 853 25.19 16.8 62.2 30 -0.6 30.9
11:20 1024 30.24 853 25.19 17.5 63.5 31 0.2 32.4
11:25 1024 30.24 853 25.19 17.6 63.7 30 -0.2 31.7
11:30 1024 30.24 853 25.19 17.6 63.6 30 0.1 32.1
11:35 1024 30.24 853 25.19 17.7 63.8 30 -0.2 31.6
11:40 1024 30.24 853 25.19 17.6 63.6 30 0 32.1
11:45 1024 30.24 853 25.19 17.8 64 29 -0.3 31.5
11:50 1024 30.24 853 25.19 17.9 64.1 30 -0 31.9
11:55 1024 30.24 853 25.19 17.4 63.3 29 -0.7 30.7
12:00 1024 30.24 853 25.19 18.2 64.7 30 0.4 32.8
12:05 1024 30.24 853 25.19 18 64.5 29 -0.1 31.7
12:10 1024 30.24 853 25.19 18.5 65.2 29 0.4 32.7
12:15 1024 30.24 853 25.19 18.8 65.8 28 0.1 32.1
12:20 1024 30.24 853 25.19 19.1 66.3 28 0.5 32.9
12:25 1024 30.24 853 25.19 18.5 65.3 30 0.5 33
12:30 1024 30.24 853 25.19 17.8 64 30 0.1 32.3
12:35 1023 30.21 853 25.19 18.3 64.9 28 -0.4 31.2
12:40 1023 30.21 853 25.19 19.1 66.3 28 0.1 32.2
12:45 1023 30.21 853 25.19 19.5 67 27 0.4 32.6
12:50 1023 30.21 852 25.16 19.7 67.4 27 0.5 32.9
12:55 1023 30.21 852 25.16 19.8 67.7 27 0.3 32.5
13:00 1023 30.21 852 25.16 19.3 66.7 29 1 33.8
13:05 1023 30.21 852 25.16 18.6 65.4 29 0.5 33
13:10 1023 30.21 852 25.16 18.3 65 30 0.5 33
13:15 1023 30.21 852 25.16 19 66.2 27 -0.3 31.4
13:20 1023 30.21 852 25.16 19.4 66.9 27 0.2 32.3
13:25 1023 30.21 852 25.16 19.4 66.8 27 0.1 32.2
13:30 1023 30.21 852 25.16 19.3 66.8 26 -0.2 31.6
13:35 1023 30.21 852 25.16 19.7 67.5 26 0 32.1
13:40 1023 30.21 852 25.16 20.1 68.1 26 0.2 32.3
13:45 1023 30.21 852 25.16 20.1 68.2 25 -0.1 31.8
13:50 1023 30.21 852 25.16 20.5 69 25 -0.1 31.9
13:55 1023 30.21 852 25.16 20.7 69.2 25 0 32
14:00 1023 30.21 852 25.16 20.7 69.2 24 -0.2 31.7
14:05 1023 30.21 852 25.16 21.2 70.1 24 -0 32
14:10 1023 30.21 852 25.16 21 69.9 24 0.1 32.2
14:15 1023 30.21 852 25.16 20.5 68.8 25 -0.1 31.8
14:20 1023 30.21 852 25.16 20.1 68.2 26 0.2 32.3
14:25 1023 30.21 852 25.16 20.1 68.2 25 -0.3 31.5
14:30 1023 30.21 852 25.16 20.2 68.4 25 -0.2 31.7
14:35 1023 30.21 852 25.16 20.3 68.5 25 -0.4 31.2
14:40 1023 30.21 852 25.16 20.3 68.6 24 -1 30.2
14:45 1023 30.21 852 25.16 20.9 69.5 22 -1.2 29.8
14:50 1022 30.18 852 25.16 21.4 70.6 22 -1.2 29.9
14:55 1022 30.18 852 25.16 21.3 70.3 22 -1 30.3
15:00 1022 30.18 852 25.16 21.1 70 21 -1.7 29
15:05 1022 30.18 852 25.16 21.3 70.3 21 -1.9 28.7
15:10 1022 30.18 852 25.16 21.4 70.5 21 -1.6 29.1
15:15 1022 30.18 852 25.16 21.1 70 22 -1.5 29.3
15:20 1022 30.18 852 25.16 21.5 70.8 22 -1.2 29.9
15:25 1022 30.18 852 25.16 21.3 70.3 23 -0.4 31.3
15:30 1022 30.18 852 25.16 21.1 70 23 -0.8 30.6
15:35 1022 30.18 852 25.16 20.9 69.6 24 -0.4 31.2
15:40 1022 30.18 852 25.16 20.3 68.6 26 0.3 32.5
15:45 1022 30.18 852 25.16 19.5 67.1 26 -0.3 31.5
15:50 1022 30.18 852 25.16 19.6 67.3 26 -0.3 31.4
15:55 1022 30.18 852 25.16 19.5 67.2 27 -0 32
16:00 1022 30.18 852 25.16 19.7 67.5 26 -0.1 31.8
16:05 1022 30.18 852 25.16 19.7 67.4 26 -0 32
16:10 1022 30.18 852 25.16 19.5 67 27 0.3 32.5
16:15 1022 30.18 852 25.16 19.5 67 27 -0.1 31.8
16:20 1022 30.18 851 25.13 19.2 66.6 28 0.2 32.4
16:25 1022 30.18 852 25.16 19.1 66.3 28 0.4 32.7
16:30 1022 30.18 851 25.13 19.2 66.5 26 -0.4 31.3
16:35 1022 30.18 851 25.13 19.4 66.8 27 -0.2 31.7
16:40 1022 30.18 851 25.13 19.1 66.5 27 -0.3 31.4
16:45 1022 30.18 851 25.13 19.2 66.5 26 -0.5 31
16:50 1022 30.18 851 25.13 19.2 66.5 27 -0.2 31.6
16:55 1022 30.18 851 25.13 19.1 66.4 27 -0.3 31.5
17:00 1022 30.18 851 25.13 19 66.3 28 0.1 32.2
17:05 1022 30.18 851 25.13 18.8 65.8 28 0 32
17:10 1022 30.18 851 25.13 18.6 65.5 29 0.3 32.5
17:15 1022 30.18 851 25.13 18.2 64.7 29 0.2 32.4
17:20 1022 30.18 851 25.13 17.9 64.2 31 0.5 32.9
17:25 1022 30.18 851 25.13 17.6 63.6 31 0.5 32.8
17:30 1022 30.18 851 25.13 17.4 63.3 32 0.6 33
17:35 1022 30.18 851 25.13 16.9 62.4 34 1.1 33.9
17:40 1022 30.18 851 25.13 16.2 61.2 37 1.5 34.7
17:45 1022 30.18 851 25.13 15.6 60 38 1.3 34.4
17:50 1022 30.18 851 25.13 15.2 59.3 39 1.3 34.4
17:55 1022 30.18 852 25.16 14.6 58.3 40 1.4 34.6
18:00 1022 30.18 852 25.16 14.3 57.7 41 1.3 34.3
18:05 1022 30.18 852 25.16 13.9 57 42 1.1 34
18:10 1022 30.18 852 25.16 13.9 57 42 1.1 34.1
18:15 1022 30.18 852 25.16 13.7 56.7 43 1.4 34.5
18:20 1022 30.18 852 25.16 13.5 56.2 42 1 33.8
18:25 1022 30.18 852 25.16 13.4 56.2 42 1 33.8
18:30 1023 30.21 852 25.16 13.3 55.9 43 0.9 33.6
18:35 1023 30.21 852 25.16 13.2 55.8 42 0.8 33.4
18:40 1023 30.21 852 25.16 13.2 55.8 43 0.9 33.5
18:45 1023 30.21 852 25.16 13 55.3 44 1.1 34
18:50 1023 30.21 852 25.16 12.7 54.9 43 0.6 33.1
18:55 1023 30.21 852 25.16 12.5 54.5 43 0.5 32.9
19:00 1023 30.21 852 25.16 12.4 54.3 43 0.4 32.7
19:05 1023 30.21 852 25.16 12.3 54.1 45 0.7 33.3
19:10 1023 30.21 852 25.16 11.9 53.5 45 0.6 33
19:15 1023 30.21 852 25.16 11.9 53.5 42 -0.3 31.4
19:20 1023 30.21 852 25.16 12.3 54.2 42 -0.1 31.8
19:25 1023 30.21 853 25.19 12.5 54.5 43 0.2 32.3
19:30 1023 30.21 853 25.19 12.6 54.6 45 0.9 33.7
19:35 1023 30.21 853 25.19 12.5 54.4 42 -0.1 31.9
19:40 1023 30.21 853 25.19 12.8 55 44 0.9 33.7
19:45 1023 30.21 853 25.19 12.9 55.3 41 0.1 32.2
19:50 1023 30.21 853 25.19 13 55.5 41 0.1 32.1
19:55 1024 30.24 853 25.19 12.9 55.1 42 0.3 32.5
20:00 1024 30.24 853 25.19 12.5 54.4 45 0.9 33.6
20:05 1024 30.24 853 25.19 11.5 52.8 48 1 33.7
20:10 1024 30.24 853 25.19 11 51.8 49 0.9 33.6
20:15 1024 30.24 853 25.19 10.7 51.3 50 0.7 33.3
20:20 1024 30.24 853 25.19 11 51.8 47 0.3 32.5
20:25 1024 30.24 853 25.19 11.1 51.9 47 0.3 32.6
20:30 1024 30.24 853 25.19 11.3 52.3 45 -0.1 31.8
20:35 1024 30.24 853 25.19 11.1 52 46 0.1 32.2
20:40 1024 30.24 853 25.19 10.9 51.7 46 -0.1 31.8
20:45 1024 30.24 853 25.19 10.8 51.4 47 -0.1 31.8
20:50 1024 30.24 854 25.22 10.5 50.9 48 -0.1 31.8
20:55 1024 30.24 854 25.22 10.4 50.7 48 -0.1 31.9
21:00 1025 30.27 854 25.22 10.3 50.5 49 -0 31.9
21:05 1025 30.27 854 25.22 10.3 50.5 49 -0 31.9
21:10 1025 30.27 854 25.22 10.5 51 47 -0.3 31.5
21:15 1025 30.27 854 25.22 10.6 51.1 46 -0.4 31.4
21:20 1025 30.27 854 25.22 10.4 50.8 46 -0.5 31
21:25 1025 30.27 854 25.22 10.5 51 45 -0.9 30.4
21:30 1025 30.27 854 25.22 10.8 51.4 44 -0.9 30.4
21:35 1025 30.27 854 25.22 10.5 51 45 -0.8 30.5
21:40 1025 30.27 854 25.22 10.3 50.6 45 -1 30.2
21:45 1025 30.27 854 25.22 10.2 50.4 46 -0.9 30.3
21:50 1025 30.27 854 25.22 10.3 50.5 46 -0.9 30.4
21:55 1025 30.27 854 25.22 10.3 50.5 45 -1 30.2
22:00 1025 30.27 854 25.22 10.3 50.6 47 -0.5 31.1
22:05 1025 30.27 854 25.22 10.2 50.3 45 -1.1 30
22:10 1025 30.27 854 25.22 10.1 50.2 46 -1 30.1
22:15 1025 30.27 854 25.22 10 50.1 46 -1 30.1
22:20 1025 30.27 854 25.22 10 50 45 -1.3 29.7
22:25 1025 30.27 854 25.22 10 49.9 46 -1.2 29.8
22:30 1025 30.27 854 25.22 9.9 49.9 45 -1.3 29.6
22:35 1025 30.27 854 25.22 9.8 49.6 46 -1.3 29.7
22:40 1025 30.27 854 25.22 9.3 48.8 48 -1.1 30.1
22:45 1025 30.27 854 25.22 8.3 47 54 -0.5 31
22:50 1025 30.27 854 25.22 7.9 46.3 50 -1.8 28.8
22:55 1025 30.27 854 25.22 8.9 48 47 -1.8 28.8
23:00 1025 30.27 854 25.22 8.8 47.8 49 -1.2 29.8
23:05 1025 30.27 854 25.22 8.5 47.3 49 -1.7 29
23:10 1025 30.27 854 25.22 9 48.2 48 -1.3 29.6
23:15 1025 30.27 854 25.22 8.8 47.9 48 -1.6 29.1
23:20 1025 30.27 854 25.22 9 48.2 46 -1.9 28.6
23:25 1025 30.27 854 25.22 9 48.2 44 -2.6 27.4
23:30 1025 30.27 854 25.22 9.3 48.8 46 -1.8 28.8
23:35 1025 30.27 854 25.22 9.5 49 44 -2 28.4
23:40 1025 30.27 854 25.22 9.6 49.2 44 -2.2 28
23:45 1025 30.27 854 25.22 9.6 49.2 44 -2.2 28
23:50 1025 30.27 855 25.25 9.5 49 44 -2.3 27.9
23:55 1025 30.27 855 25.25 9.5 49 44 -2.3 27.9
24:00 1025 30.27 855 25.25 9.7 49.4 41 -2.8 27